Time;durP1;ratioP1;P1;durP2;ratioP2;P2;SDS_P1;SDS_P2;PMS_P1;PMS_P2;Temp;Humidity;BMP_temperature;BMP_pressure;BME280_temperature;BME280_humidity;BME280_pressure;Samples;Min_cycle;Max_cycle;Signal;HPM_P1;HPM_P2
2023/10/06 00:01:33;;;;;;;;;;;23.40;48.00;;;;;;5073670;28;20380;-60
2023/10/06 00:04:06;;;;;;;;;;;23.40;47.90;;;;;;5072377;28;19924;-60
2023/10/06 00:06:37;;;;;;;;;;;23.50;48.00;;;;;;5072957;28;19978;-60
2023/10/06 00:09:06;;;;;;;;;;;23.40;47.90;;;;;;5072863;28;20288;-60
2023/10/06 00:11:34;;;;;;;;;;;23.40;47.90;;;;;;5073121;28;19924;-60
2023/10/06 00:14:00;;;;;;;;;;;23.40;48.00;;;;;;5071710;28;19924;-60
2023/10/06 00:16:33;;;;;;;;;;;23.40;48.00;;;;;;5073727;28;20024;-60
2023/10/06 00:19:20;;;;;;;;;;;23.40;48.00;;;;;;5073309;28;19924;-60
2023/10/06 00:21:47;;;;;;;;;;;23.40;48.00;;;;;;5072385;28;19978;-60
2023/10/06 00:24:14;;;;;;;;;;;23.40;48.00;;;;;;5083902;28;19924;-60
2023/10/06 00:26:42;;;;;;;;;;;23.40;48.00;;;;;;5092598;28;20015;-61
2023/10/06 00:29:17;;;;;;;;;;;23.40;48.00;;;;;;5092163;28;20419;-60
2023/10/06 00:31:47;;;;;;;;;;;23.40;48.00;;;;;;5093230;28;20296;-60
2023/10/06 00:34:21;;;;;;;;;;;23.40;48.00;;;;;;5092433;28;19964;-60
2023/10/06 00:36:56;;;;;;;;;;;23.40;48.10;;;;;;5092616;28;20006;-60
2023/10/06 00:39:23;;;;;;;;;;;23.40;48.00;;;;;;5091991;28;19970;-60
2023/10/06 00:42:04;;;;;;;;;;;23.40;48.00;;;;;;5092775;28;19954;-60
2023/10/06 00:44:35;;;;;;;;;;;23.40;48.00;;;;;;5092779;28;20022;-61
2023/10/06 00:47:05;;;;;;;;;;;23.40;48.00;;;;;;5092792;28;20441;-60
2023/10/06 00:49:33;;;;;;;;;;;23.40;48.00;;;;;;5092625;28;20349;-60
2023/10/06 00:52:01;;;;;;;;;;;23.40;48.00;;;;;;5093495;28;19924;-60
2023/10/06 00:54:28;;;;;;;;;;;23.40;48.00;;;;;;5092269;28;20011;-60
2023/10/06 00:56:58;;;;;;;;;;;23.40;48.00;;;;;;5092659;28;19928;-61
2023/10/06 00:59:25;;;;;;;;;;;23.40;48.00;;;;;;5092296;28;19932;-60
2023/10/06 01:01:55;;;;;;;;;;;23.40;48.00;;;;;;5092891;28;20001;-60
2023/10/06 01:04:25;;;;;;;;;;;23.40;48.00;;;;;;5092320;28;19928;-60
2023/10/06 01:06:54;;;;;;;;;;;23.40;48.10;;;;;;5092558;28;20365;-60
2023/10/06 01:09:30;;;;;;;;;;;23.40;48.00;;;;;;5091850;28;19982;-60
2023/10/06 01:11:57;;;;;;;;;;;23.40;48.00;;;;;;5092753;28;19928;-60
2023/10/06 01:14:27;;;;;;;;;;;23.40;47.90;;;;;;5091873;28;20448;-60
2023/10/06 01:17:14;;;;;;;;;;;23.40;47.90;;;;;;5092318;28;19975;-61
2023/10/06 01:19:49;;;;;;;;;;;23.40;47.80;;;;;;5091840;28;20460;-60
2023/10/06 01:22:24;;;;;;;;;;;23.40;47.80;;;;;;5092136;28;19928;-60
2023/10/06 01:24:55;;;;;;;;;;;23.40;47.80;;;;;;5092401;28;20400;-61
2023/10/06 01:27:26;;;;;;;;;;;23.40;47.80;;;;;;5091929;28;19963;-61
2023/10/06 01:30:17;;;;;;;;;;;23.40;47.80;;;;;;5092890;28;19924;-60
2023/10/06 01:32:44;;;;;;;;;;;23.40;47.70;;;;;;5092081;28;19924;-61
2023/10/06 01:35:12;;;;;;;;;;;23.40;47.80;;;;;;5094459;28;19924;-60
2023/10/06 01:37:41;;;;;;;;;;;23.40;47.80;;;;;;5095916;28;20466;-61
2023/10/06 01:40:16;;;;;;;;;;;23.40;47.80;;;;;;5096697;28;19928;-60
2023/10/06 01:42:45;;;;;;;;;;;23.40;47.80;;;;;;5096432;28;19975;-61
2023/10/06 01:45:18;;;;;;;;;;;23.40;47.90;;;;;;5095781;28;19977;-60
2023/10/06 01:47:46;;;;;;;;;;;23.40;47.90;;;;;;5096132;28;20335;-60
2023/10/06 01:50:13;;;;;;;;;;;23.40;47.90;;;;;;5094682;28;19935;-60
2023/10/06 01:52:40;;;;;;;;;;;23.40;47.90;;;;;;5095848;28;20368;-60
2023/10/06 01:55:09;;;;;;;;;;;23.30;47.90;;;;;;5095254;28;20253;-60
2023/10/06 01:57:36;;;;;;;;;;;23.40;48.00;;;;;;5096409;28;19975;-60
2023/10/06 02:00:04;;;;;;;;;;;23.40;47.90;;;;;;5095574;28;19924;-60
2023/10/06 02:02:31;;;;;;;;;;;23.40;48.00;;;;;;5096122;28;20327;-60
2023/10/06 02:04:59;;;;;;;;;;;23.40;48.00;;;;;;5095308;28;19924;-60
2023/10/06 02:07:27;;;;;;;;;;;23.40;48.00;;;;;;5096145;28;20015;-60
2023/10/06 02:09:54;;;;;;;;;;;23.30;48.00;;;;;;5095017;28;19924;-60
2023/10/06 02:12:21;;;;;;;;;;;23.30;48.00;;;;;;5096083;28;19924;-60
2023/10/06 02:14:48;;;;;;;;;;;23.30;48.00;;;;;;5096371;28;19967;-61
2023/10/06 02:17:17;;;;;;;;;;;23.30;48.00;;;;;;5095973;28;19963;-60
2023/10/06 02:19:44;;;;;;;;;;;23.30;47.90;;;;;;5095886;28;20020;-60
2023/10/06 02:22:11;;;;;;;;;;;23.30;48.00;;;;;;5095568;28;19924;-60
2023/10/06 02:24:39;;;;;;;;;;;23.30;48.00;;;;;;5095701;28;20445;-60
2023/10/06 02:27:06;;;;;;;;;;;23.30;47.90;;;;;;5094652;28;20014;-60
2023/10/06 02:29:33;;;;;;;;;;;23.30;47.90;;;;;;5093988;28;19950;-60
2023/10/06 02:32:06;;;;;;;;;;;23.30;48.00;;;;;;5094670;28;19924;-60
2023/10/06 02:34:35;;;;;;;;;;;23.30;47.90;;;;;;5095401;28;20291;-60
2023/10/06 02:37:06;;;;;;;;;;;23.30;47.90;;;;;;5088073;28;19925;-60
2023/10/06 02:39:34;;;;;;;;;;;23.30;47.90;;;;;;5074517;28;19924;-60
2023/10/06 02:42:07;;;;;;;;;;;23.30;47.80;;;;;;5075791;28;19958;-60
2023/10/06 02:44:40;;;;;;;;;;;23.30;47.80;;;;;;5074003;28;20007;-60
2023/10/06 02:47:09;;;;;;;;;;;23.30;47.70;;;;;;5072586;28;20019;-61
2023/10/06 02:49:40;;;;;;;;;;;23.30;47.70;;;;;;5086838;28;19924;-60
2023/10/06 02:52:29;;;;;;;;;;;23.40;47.70;;;;;;5095573;28;19947;-61
2023/10/06 02:55:09;;;;;;;;;;;23.40;47.70;;;;;;5094498;28;20054;-61
2023/10/06 02:57:37;;;;;;;;;;;23.40;47.70;;;;;;5093411;28;19928;-61
2023/10/06 03:02:55;;;;;;;;;;;23.40;47.70;;;;;;5095377;28;19924;-60
2023/10/06 03:05:33;;;;;;;;;;;23.30;47.70;;;;;;5093298;28;19924;-60
2023/10/06 03:08:00;;;;;;;;;;;23.30;47.70;;;;;;5093903;28;20388;-61
2023/10/06 03:10:35;;;;;;;;;;;23.30;47.70;;;;;;5094171;28;19924;-60
2023/10/06 03:13:03;;;;;;;;;;;23.30;47.70;;;;;;5094148;28;19971;-60
2023/10/06 03:15:36;;;;;;;;;;;23.30;47.70;;;;;;5094003;28;20023;-60
2023/10/06 03:18:05;;;;;;;;;;;23.30;47.80;;;;;;5093385;28;19924;-60
2023/10/06 03:20:49;;;;;;;;;;;23.30;47.70;;;;;;5094283;28;19928;-60
2023/10/06 03:23:26;;;;;;;;;;;23.30;47.80;;;;;;5094491;28;19928;-59
2023/10/06 03:25:54;;;;;;;;;;;23.30;47.80;;;;;;5094194;28;19977;-60
2023/10/06 03:28:25;;;;;;;;;;;23.30;47.80;;;;;;5106236;28;19928;-60
2023/10/06 03:30:52;;;;;;;;;;;23.30;47.80;;;;;;5114289;28;19977;-60
2023/10/06 03:33:19;;;;;;;;;;;23.30;48.30;;;;;;5113421;28;19927;-60
2023/10/06 03:35:47;;;;;;;;;;;23.30;47.80;;;;;;5113436;28;19923;-60
2023/10/06 03:38:34;;;;;;;;;;;23.30;47.80;;;;;;5114240;28;19923;-60
2023/10/06 03:41:18;;;;;;;;;;;23.30;47.80;;;;;;5113342;28;19971;-60
2023/10/06 03:43:55;;;;;;;;;;;23.30;47.80;;;;;;5113682;28;20006;-60
2023/10/06 03:46:23;;;;;;;;;;;23.30;47.90;;;;;;5113482;28;19931;-60
2023/10/06 03:48:51;;;;;;;;;;;23.30;47.80;;;;;;5114962;28;19923;-60
2023/10/06 03:51:19;;;;;;;;;;;23.30;47.80;;;;;;5114357;28;19953;-60
2023/10/06 03:53:48;;;;;;;;;;;23.30;47.80;;;;;;5114515;28;19927;-60
2023/10/06 03:56:18;;;;;;;;;;;23.30;47.90;;;;;;5114891;28;19924;-61
2023/10/06 03:58:46;;;;;;;;;;;23.30;48.20;;;;;;5114670;28;19924;-60
2023/10/06 04:01:16;;;;;;;;;;;23.30;47.90;;;;;;5113409;28;19931;-61
2023/10/06 04:03:43;;;;;;;;;;;23.30;47.90;;;;;;5112226;28;20299;-60
2023/10/06 04:06:15;;;;;;;;;;;23.30;47.80;;;;;;5113020;28;19924;-60
2023/10/06 04:08:44;;;;;;;;;;;23.30;47.80;;;;;;5114112;28;19923;-60
2023/10/06 04:11:15;;;;;;;;;;;23.30;47.80;;;;;;5113693;28;20019;-60
2023/10/06 04:13:42;;;;;;;;;;;23.30;47.80;;;;;;5113484;28;19923;-60
2023/10/06 04:16:13;;;;;;;;;;;23.30;47.70;;;;;;5113136;28;19924;-60
2023/10/06 04:18:41;;;;;;;;;;;23.30;47.70;;;;;;5112697;28;19924;-60
2023/10/06 04:21:11;;;;;;;;;;;23.30;47.70;;;;;;5113434;28;20414;-61
2023/10/06 04:23:41;;;;;;;;;;;23.30;47.60;;;;;;5112948;28;20388;-60
2023/10/06 04:26:09;;;;;;;;;;;23.30;47.60;;;;;;5113191;28;19969;-61
2023/10/06 04:28:37;;;;;;;;;;;23.30;47.60;;;;;;5112924;28;19930;-60
2023/10/06 04:31:07;;;;;;;;;;;23.30;47.60;;;;;;5113697;28;20392;-60
2023/10/06 04:33:34;;;;;;;;;;;23.30;47.60;;;;;;5113286;28;19924;-60
2023/10/06 04:36:07;;;;;;;;;;;23.30;47.60;;;;;;5102679;28;20273;-60
2023/10/06 04:38:37;;;;;;;;;;;23.30;47.70;;;;;;5093982;28;20284;-61
2023/10/06 04:41:07;;;;;;;;;;;23.20;47.70;;;;;;5093806;28;19939;-61
2023/10/06 04:43:34;;;;;;;;;;;23.10;47.80;;;;;;5093906;28;19982;-61
2023/10/06 04:46:05;;;;;;;;;;;22.90;48.10;;;;;;5093223;28;20053;-61
2023/10/06 04:48:32;;;;;;;;;;;22.70;48.40;;;;;;5093656;28;19924;-61
2023/10/06 04:51:02;;;;;;;;;;;22.50;49.00;;;;;;5093409;28;19932;-61
2023/10/06 04:53:34;;;;;;;;;;;22.20;49.50;;;;;;5093097;28;19932;-61
2023/10/06 04:56:03;;;;;;;;;;;21.90;49.30;;;;;;5093222;28;20011;-61
2023/10/06 04:58:30;;;;;;;;;;;21.60;49.00;;;;;;5093632;28;19924;-61
2023/10/06 05:01:00;;;;;;;;;;;21.30;48.20;;;;;;5093722;28;19927;-61
2023/10/06 05:03:27;;;;;;;;;;;21.00;47.80;;;;;;5093501;28;19928;-61
2023/10/06 05:05:58;;;;;;;;;;;20.60;48.50;;;;;;5092708;28;19931;-61
2023/10/06 05:08:25;;;;;;;;;;;20.40;49.90;;;;;;5092064;28;19970;-61
2023/10/06 05:10:52;;;;;;;;;;;20.10;49.80;;;;;;5095192;28;19951;-61
2023/10/06 05:13:20;;;;;;;;;;;19.80;49.40;;;;;;5094177;28;19930;-61
2023/10/06 05:15:47;;;;;;;;;;;19.60;50.50;;;;;;5093979;28;20019;-61
2023/10/06 05:18:16;;;;;;;;;;;19.40;50.50;;;;;;5079489;28;19928;-63
2023/10/06 05:20:43;;;;;;;;;;;19.20;49.80;;;;;;5075488;28;19974;-62
2023/10/06 05:23:14;;;;;;;;;;;19.00;50.20;;;;;;5075761;28;20011;-61
2023/10/06 05:25:44;;;;;;;;;;;18.90;51.10;;;;;;5085144;28;20011;-61
2023/10/06 05:28:13;;;;;;;;;;;18.70;50.50;;;;;;5085450;28;19946;-64
2023/10/06 05:30:41;;;;;;;;;;;18.50;50.00;;;;;;5077018;28;19928;-63
2023/10/06 05:33:09;;;;;;;;;;;18.40;50.60;;;;;;5075607;28;19934;-62
2023/10/06 05:35:38;;;;;;;;;;;18.30;51.00;;;;;;5087594;28;19932;-62
2023/10/06 05:38:12;;;;;;;;;;;18.30;51.90;;;;;;5084098;28;20208;-62
2023/10/06 05:40:44;;;;;;;;;;;18.10;51.00;;;;;;5081326;28;19978;-62
2023/10/06 05:43:17;;;;;;;;;;;18.10;51.00;;;;;;5082410;28;19969;-62
2023/10/06 05:45:45;;;;;;;;;;;18.00;51.00;;;;;;5080341;28;19927;-62
2023/10/06 05:48:12;;;;;;;;;;;18.00;51.60;;;;;;5073665;28;19932;-61
2023/10/06 05:50:43;;;;;;;;;;;17.90;52.30;;;;;;5079904;28;19928;-62
2023/10/06 05:53:22;;;;;;;;;;;17.90;52.00;;;;;;5080519;28;19938;-62
2023/10/06 05:55:52;;;;;;;;;;;17.80;51.10;;;;;;5075071;28;19924;-63
2023/10/06 05:58:19;;;;;;;;;;;17.80;52.20;;;;;;5076818;28;20388;-64
2023/10/06 06:01:04;;;;;;;;;;;17.80;52.90;;;;;;5078325;28;20429;-63
2023/10/06 06:03:32;;;;;;;;;;;17.70;52.80;;;;;;5073370;28;20331;-62
2023/10/06 06:06:08;;;;;;;;;;;17.70;52.10;;;;;;5063530;28;20040;-60
2023/10/06 06:08:35;;;;;;;;;;;17.70;52.30;;;;;;5077026;28;19924;-62
2023/10/06 06:11:05;;;;;;;;;;;17.60;52.70;;;;;;5075858;28;20014;-68
2023/10/06 06:13:33;;;;;;;;;;;17.60;53.30;;;;;;5075815;28;19992;-68
2023/10/06 06:16:02;;;;;;;;;;;17.60;53.60;;;;;;5075149;28;20027;-67
2023/10/06 06:18:30;;;;;;;;;;;17.60;53.30;;;;;;5078019;28;20520;-67
2023/10/06 06:21:02;;;;;;;;;;;17.60;52.70;;;;;;5071120;28;19924;-67
2023/10/06 06:23:33;;;;;;;;;;;17.60;53.10;;;;;;5076425;28;19974;-68
2023/10/06 06:26:00;;;;;;;;;;;17.60;53.20;;;;;;5072769;28;19928;-68
2023/10/06 06:28:28;;;;;;;;;;;17.60;53.20;;;;;;5074238;28;20361;-68
2023/10/06 06:31:04;;;;;;;;;;;17.60;53.00;;;;;;5073961;28;19933;-69
2023/10/06 06:33:32;;;;;;;;;;;17.60;53.80;;;;;;5078249;28;19924;-67
2023/10/06 06:36:00;;;;;;;;;;;17.60;53.30;;;;;;5079767;28;19931;-66
2023/10/06 06:38:28;;;;;;;;;;;17.60;53.00;;;;;;5078936;28;19925;-67
2023/10/06 06:40:59;;;;;;;;;;;17.60;53.40;;;;;;5073350;28;20020;-66
2023/10/06 06:43:26;;;;;;;;;;;17.60;53.80;;;;;;5081963;28;19931;-66
2023/10/06 06:45:53;;;;;;;;;;;17.60;54.50;;;;;;5075242;28;20396;-65
2023/10/06 06:48:21;;;;;;;;;;;17.60;53.00;;;;;;5076130;28;19936;-65
2023/10/06 06:50:49;;;;;;;;;;;17.60;53.30;;;;;;5073996;28;19924;-65
2023/10/06 06:53:19;;;;;;;;;;;17.60;53.10;;;;;;5072566;28;20023;-68
2023/10/06 06:55:46;;;;;;;;;;;17.70;53.40;;;;;;5077149;28;19933;-65
2023/10/06 06:58:16;;;;;;;;;;;17.60;53.20;;;;;;5078421;28;20471;-66
2023/10/06 07:00:47;;;;;;;;;;;17.70;53.40;;;;;;5068643;28;20395;-65
2023/10/06 07:03:15;;;;;;;;;;;17.70;53.30;;;;;;5071667;28;19932;-67
2023/10/06 07:05:43;;;;;;;;;;;17.70;53.50;;;;;;5075043;28;19932;-66
2023/10/06 07:08:11;;;;;;;;;;;17.80;53.90;;;;;;5076248;28;19987;-67
2023/10/06 07:10:46;;;;;;;;;;;17.80;53.10;;;;;;5077587;28;19924;-65
2023/10/06 07:13:14;;;;;;;;;;;17.80;52.60;;;;;;5070716;28;19936;-66
2023/10/06 07:15:41;;;;;;;;;;;17.80;52.70;;;;;;5075775;28;20001;-67
2023/10/06 07:18:12;;;;;;;;;;;17.80;53.10;;;;;;5082726;28;19932;-66
2023/10/06 07:20:39;;;;;;;;;;;17.90;53.10;;;;;;5073996;28;19924;-66
2023/10/06 07:23:06;;;;;;;;;;;17.80;52.10;;;;;;5078448;28;19931;-65
2023/10/06 07:25:33;;;;;;;;;;;17.90;52.40;;;;;;5076157;28;20363;-66
2023/10/06 07:28:01;;;;;;;;;;;17.80;52.90;;;;;;5078725;28;20373;-66
2023/10/06 07:30:34;;;;;;;;;;;17.90;53.40;;;;;;5074773;28;19990;-66
2023/10/06 07:33:03;;;;;;;;;;;17.90;53.30;;;;;;5075061;28;19959;-65
2023/10/06 07:35:37;;;;;;;;;;;17.90;53.10;;;;;;5074056;28;20345;-67
2023/10/06 07:38:04;;;;;;;;;;;17.90;53.20;;;;;;5080784;28;20443;-67
2023/10/06 07:40:32;;;;;;;;;;;17.90;53.00;;;;;;5074596;28;19955;-66
2023/10/06 07:42:59;;;;;;;;;;;17.90;52.00;;;;;;5069653;28;20015;-66
2023/10/06 07:45:26;;;;;;;;;;;17.90;52.50;;;;;;5063772;28;19968;-65
2023/10/06 07:47:54;;;;;;;;;;;17.90;53.40;;;;;;5073428;28;19940;-67
2023/10/06 07:50:21;;;;;;;;;;;17.90;52.80;;;;;;5071927;28;20048;-66
2023/10/06 07:52:49;;;;;;;;;;;17.90;52.30;;;;;;5075322;28;20521;-66
2023/10/06 07:55:21;;;;;;;;;;;17.90;52.80;;;;;;5075904;28;19924;-66
2023/10/06 07:57:48;;;;;;;;;;;17.90;53.10;;;;;;5076503;28;19928;-66
2023/10/06 08:00:27;;;;;;;;;;;17.90;53.40;;;;;;5073729;28;19964;-65
2023/10/06 08:02:55;;;;;;;;;;;17.90;52.60;;;;;;5074100;28;19932;-66
2023/10/06 08:05:23;;;;;;;;;;;18.00;52.90;;;;;;5073662;28;20043;-65
2023/10/06 08:07:54;;;;;;;;;;;18.00;53.00;;;;;;5073277;28;19973;-66
2023/10/06 08:10:23;;;;;;;;;;;18.00;53.40;;;;;;5077780;28;20335;-65
2023/10/06 08:12:51;;;;;;;;;;;18.00;53.10;;;;;;5075961;28;20291;-66
2023/10/06 08:15:21;;;;;;;;;;;18.10;52.60;;;;;;5078880;28;19932;-66
2023/10/06 08:17:50;;;;;;;;;;;18.10;52.90;;;;;;5075892;28;20407;-65
2023/10/06 08:20:20;;;;;;;;;;;18.10;53.00;;;;;;5080258;28;19932;-65
2023/10/06 08:22:49;;;;;;;;;;;18.00;53.40;;;;;;5077306;28;19985;-66
2023/10/06 08:25:16;;;;;;;;;;;18.10;53.00;;;;;;5076071;28;20031;-68
2023/10/06 08:27:44;;;;;;;;;;;18.00;53.00;;;;;;5067169;28;19978;-66
2023/10/06 08:30:16;;;;;;;;;;;18.10;53.10;;;;;;5075305;28;19933;-66
2023/10/06 08:32:47;;;;;;;;;;;18.00;53.20;;;;;;5074230;28;19973;-66
2023/10/06 08:35:14;;;;;;;;;;;18.10;53.60;;;;;;5078152;28;19982;-66
2023/10/06 08:37:43;;;;;;;;;;;18.00;52.40;;;;;;5072213;28;19932;-66
2023/10/06 08:40:17;;;;;;;;;;;18.00;53.00;;;;;;5070108;28;19924;-66
2023/10/06 08:42:53;;;;;;;;;;;18.00;52.60;;;;;;5079123;28;19925;-66
2023/10/06 08:45:21;;;;;;;;;;;18.00;53.10;;;;;;5076839;28;20015;-68
2023/10/06 08:47:50;;;;;;;;;;;18.00;52.90;;;;;;5065738;28;19924;-67
2023/10/06 08:50:29;;;;;;;;;;;17.90;52.40;;;;;;5075996;28;20386;-66
2023/10/06 08:52:57;;;;;;;;;;;17.90;53.60;;;;;;5075396;28;20472;-67
2023/10/06 08:55:25;;;;;;;;;;;17.90;53.10;;;;;;5072089;28;20349;-65
2023/10/06 08:57:56;;;;;;;;;;;17.90;52.80;;;;;;5074754;28;19928;-66
2023/10/06 09:00:25;;;;;;;;;;;17.90;53.90;;;;;;5074344;28;19928;-66
2023/10/06 09:02:54;;;;;;;;;;;17.90;54.40;;;;;;5075925;28;20001;-68
2023/10/06 09:05:21;;;;;;;;;;;17.80;54.00;;;;;;5069045;28;19938;-67
2023/10/06 09:08:06;;;;;;;;;;;17.80;54.00;;;;;;5068136;28;19935;-66
2023/10/06 09:10:34;;;;;;;;;;;17.80;54.40;;;;;;5072859;28;19972;-66
2023/10/06 09:13:04;;;;;;;;;;;17.80;54.30;;;;;;5069677;28;20334;-67
2023/10/06 09:15:32;;;;;;;;;;;17.80;54.20;;;;;;5074111;28;19924;-66
2023/10/06 09:17:59;;;;;;;;;;;17.80;54.30;;;;;;5071650;28;20266;-66
2023/10/06 09:20:37;;;;;;;;;;;17.80;54.40;;;;;;5075720;28;19932;-66
2023/10/06 09:23:06;;;;;;;;;;;17.80;54.60;;;;;;5072704;28;19924;-66
2023/10/06 09:25:40;;;;;;;;;;;17.80;55.00;;;;;;5073011;28;19933;-66
2023/10/06 09:28:13;;;;;;;;;;;17.80;54.60;;;;;;5077204;28;20071;-64
2023/10/06 09:30:50;;;;;;;;;;;17.80;54.80;;;;;;5073600;28;19933;-63
2023/10/06 09:33:18;;;;;;;;;;;17.80;54.20;;;;;;5066827;28;19935;-63
2023/10/06 09:35:45;;;;;;;;;;;17.80;54.40;;;;;;5065047;28;19981;-64
2023/10/06 09:38:13;;;;;;;;;;;17.80;54.50;;;;;;5067903;28;20019;-64
2023/10/06 09:40:42;;;;;;;;;;;17.90;54.90;;;;;;5073976;28;19931;-63
2023/10/06 09:43:11;;;;;;;;;;;17.90;54.50;;;;;;5065780;28;19936;-64
2023/10/06 09:45:40;;;;;;;;;;;17.90;54.50;;;;;;5062822;28;20023;-63
2023/10/06 09:48:09;;;;;;;;;;;17.80;55.10;;;;;;5059770;28;20352;-62
2023/10/06 09:50:37;;;;;;;;;;;17.80;54.40;;;;;;5068059;28;20301;-63
2023/10/06 09:53:08;;;;;;;;;;;17.90;54.70;;;;;;5073265;28;19925;-63
2023/10/06 09:55:36;;;;;;;;;;;17.80;54.70;;;;;;5077602;28;19924;-62
2023/10/06 09:58:05;;;;;;;;;;;17.80;54.70;;;;;;5073380;28;19971;-63
2023/10/06 10:00:36;;;;;;;;;;;17.80;54.60;;;;;;5078270;28;19970;-63
2023/10/06 10:03:04;;;;;;;;;;;17.70;55.00;;;;;;5074123;28;20592;-67
2023/10/06 10:05:31;;;;;;;;;;;17.70;55.50;;;;;;5072126;28;20509;-61
2023/10/06 10:07:58;;;;;;;;;;;17.70;55.10;;;;;;5074636;28;20411;-63
2023/10/06 10:10:28;;;;;;;;;;;17.60;55.00;;;;;;5081806;28;19932;-62
2023/10/06 10:13:12;;;;;;;;;;;17.60;55.60;;;;;;5080034;28;19931;-62
2023/10/06 10:15:48;;;;;;;;;;;17.70;55.40;;;;;;5070341;28;20371;-62
2023/10/06 10:18:21;;;;;;;;;;;17.60;54.80;;;;;;5074849;28;19933;-62
2023/10/06 10:20:49;;;;;;;;;;;17.60;54.90;;;;;;5079430;28;20018;-62
2023/10/06 10:23:16;;;;;;;;;;;17.60;55.30;;;;;;5078273;28;19956;-62
2023/10/06 10:25:47;;;;;;;;;;;17.60;55.00;;;;;;5077307;28;19955;-62
2023/10/06 10:28:15;;;;;;;;;;;17.50;54.80;;;;;;5068484;28;19928;-63
2023/10/06 10:30:59;;;;;;;;;;;17.50;55.80;;;;;;5077479;28;20328;-63
2023/10/06 10:33:31;;;;;;;;;;;17.50;55.80;;;;;;5078302;28;20012;-62
2023/10/06 10:36:18;;;;;;;;;;;17.50;55.50;;;;;;5071593;28;20025;-62
2023/10/06 10:38:56;;;;;;;;;;;17.50;55.80;;;;;;5078169;28;20384;-62
2023/10/06 10:41:26;;;;;;;;;;;17.50;55.80;;;;;;5074991;28;19985;-62
2023/10/06 10:43:55;;;;;;;;;;;17.50;55.30;;;;;;5077122;28;20080;-62
2023/10/06 10:46:46;;;;;;;;;;;17.50;56.30;;;;;;5076325;28;19931;-63
2023/10/06 10:49:13;;;;;;;;;;;17.50;56.00;;;;;;5076617;28;19924;-63
2023/10/06 10:51:54;;;;;;;;;;;17.50;55.80;;;;;;5068802;28;20420;-63
2023/10/06 10:54:22;;;;;;;;;;;17.50;55.80;;;;;;5077527;28;19929;-63
2023/10/06 10:56:53;;;;;;;;;;;17.50;56.30;;;;;;5076501;28;19932;-63
2023/10/06 10:59:21;;;;;;;;;;;17.50;56.40;;;;;;5073758;28;19970;-62
2023/10/06 11:01:51;;;;;;;;;;;17.50;56.20;;;;;;5077817;28;19931;-61
2023/10/06 11:04:30;;;;;;;;;;;17.50;56.20;;;;;;5084403;28;19971;-61
2023/10/06 11:07:07;;;;;;;;;;;17.50;56.00;;;;;;5074541;28;19924;-61
2023/10/06 11:09:41;;;;;;;;;;;17.50;56.00;;;;;;5076582;28;20002;-62
2023/10/06 11:12:23;;;;;;;;;;;17.60;56.10;;;;;;5078823;28;20010;-61
2023/10/06 11:14:52;;;;;;;;;;;17.60;56.40;;;;;;5075660;28;20026;-62
2023/10/06 11:17:21;;;;;;;;;;;17.60;56.10;;;;;;5078055;28;20020;-62
2023/10/06 11:20:00;;;;;;;;;;;17.70;55.90;;;;;;5078067;28;19936;-63
2023/10/06 11:22:32;;;;;;;;;;;17.70;55.90;;;;;;5073286;28;19924;-63
2023/10/06 11:25:03;;;;;;;;;;;17.70;55.70;;;;;;5074238;28;19932;-62
2023/10/06 11:27:37;;;;;;;;;;;17.70;55.80;;;;;;5069195;28;20461;-64
2023/10/06 11:30:11;;;;;;;;;;;17.70;55.60;;;;;;5070990;28;19935;-65
2023/10/06 11:32:40;;;;;;;;;;;17.70;55.50;;;;;;5078069;28;19943;-64
2023/10/06 11:35:10;;;;;;;;;;;17.70;55.10;;;;;;5072686;28;20265;-63
2023/10/06 11:37:37;;;;;;;;;;;17.70;55.40;;;;;;5073791;28;19928;-63
2023/10/06 11:40:05;;;;;;;;;;;17.80;55.00;;;;;;5071081;28;20016;-62
2023/10/06 11:42:37;;;;;;;;;;;17.80;55.20;;;;;;5075984;28;19932;-66
2023/10/06 11:45:11;;;;;;;;;;;17.80;55.00;;;;;;5073711;28;19924;-63
2023/10/06 11:47:39;;;;;;;;;;;17.80;55.10;;;;;;5081811;28;19968;-64
2023/10/06 11:50:08;;;;;;;;;;;17.80;55.40;;;;;;5075488;28;19971;-63
2023/10/06 11:52:42;;;;;;;;;;;17.80;55.40;;;;;;5078316;28;19932;-63
2023/10/06 11:55:14;;;;;;;;;;;17.80;55.10;;;;;;5075744;28;19969;-64
2023/10/06 11:57:46;;;;;;;;;;;17.80;55.10;;;;;;5075853;28;19968;-63
2023/10/06 12:00:19;;;;;;;;;;;17.80;55.30;;;;;;5072191;28;19935;-66
2023/10/06 12:02:50;;;;;;;;;;;17.80;55.30;;;;;;5078474;28;19931;-63
2023/10/06 12:05:18;;;;;;;;;;;17.80;55.50;;;;;;5080261;28;19932;-63
2023/10/06 12:07:49;;;;;;;;;;;17.80;55.10;;;;;;5075871;28;19932;-63
2023/10/06 12:10:18;;;;;;;;;;;17.70;54.90;;;;;;5075030;28;19924;-63
2023/10/06 12:12:46;;;;;;;;;;;17.70;55.30;;;;;;5076666;28;19928;-64
2023/10/06 12:15:14;;;;;;;;;;;17.70;55.40;;;;;;5078664;28;20024;-64
2023/10/06 12:17:41;;;;;;;;;;;17.70;55.40;;;;;;5078408;28;19928;-64
2023/10/06 12:20:13;;;;;;;;;;;17.70;55.10;;;;;;5086433;28;19928;-64
2023/10/06 12:22:41;;;;;;;;;;;17.80;55.50;;;;;;5082499;28;19935;-64
2023/10/06 12:25:10;;;;;;;;;;;17.70;55.40;;;;;;5083308;28;20327;-62
2023/10/06 12:27:37;;;;;;;;;;;17.70;55.60;;;;;;5072811;28;19948;-62
2023/10/06 12:30:06;;;;;;;;;;;17.80;55.70;;;;;;5084802;28;20023;-62
2023/10/06 12:32:34;;;;;;;;;;;17.80;55.20;;;;;;5091665;28;20419;-62
2023/10/06 12:35:05;;;;;;;;;;;17.80;55.80;;;;;;5088157;28;19924;-62
2023/10/06 12:37:33;;;;;;;;;;;17.80;56.00;;;;;;5092605;28;20463;-62
2023/10/06 12:40:03;;;;;;;;;;;17.80;55.90;;;;;;5089795;28;19924;-64
2023/10/06 12:42:31;;;;;;;;;;;17.80;56.10;;;;;;5085849;28;20261;-63
2023/10/06 12:45:00;;;;;;;;;;;17.80;56.30;;;;;;5071886;28;19931;-64
2023/10/06 12:47:28;;;;;;;;;;;17.80;56.70;;;;;;5073595;28;19932;-64
2023/10/06 12:49:58;;;;;;;;;;;17.80;56.20;;;;;;5088331;28;20391;-63
2023/10/06 12:52:26;;;;;;;;;;;17.80;56.10;;;;;;5109730;28;19924;-63
2023/10/06 12:54:53;;;;;;;;;;;17.80;56.20;;;;;;5108693;28;19931;-63
2023/10/06 12:57:21;;;;;;;;;;;17.80;56.40;;;;;;5078018;28;20011;-63
2023/10/06 12:59:48;;;;;;;;;;;17.80;55.90;;;;;;5076155;28;20023;-63
2023/10/06 13:02:24;;;;;;;;;;;17.80;56.00;;;;;;5078777;28;19924;-63
2023/10/06 13:04:53;;;;;;;;;;;17.80;56.60;;;;;;5080165;28;19960;-64
2023/10/06 13:07:20;;;;;;;;;;;17.80;56.90;;;;;;5089534;28;20014;-62
2023/10/06 13:09:49;;;;;;;;;;;17.80;56.70;;;;;;5081226;28;19975;-63
2023/10/06 13:12:16;;;;;;;;;;;17.80;56.10;;;;;;5079459;28;20027;-62
2023/10/06 13:14:43;;;;;;;;;;;17.80;56.60;;;;;;5092909;28;19979;-62
2023/10/06 13:17:11;;;;;;;;;;;17.80;56.30;;;;;;5092762;28;19933;-61
2023/10/06 13:19:38;;;;;;;;;;;17.80;56.40;;;;;;5074617;28;19928;-61
2023/10/06 13:22:06;;;;;;;;;;;17.80;56.40;;;;;;5092600;28;20002;-61
2023/10/06 13:24:34;;;;;;;;;;;17.80;56.90;;;;;;5091957;28;19932;-62
2023/10/06 13:27:01;;;;;;;;;;;17.80;56.90;;;;;;5092011;28;19985;-61
2023/10/06 13:29:28;;;;;;;;;;;17.80;56.40;;;;;;5091028;28;19924;-61
2023/10/06 13:31:55;;;;;;;;;;;17.80;56.40;;;;;;5095089;28;20010;-61
2023/10/06 13:34:23;;;;;;;;;;;17.80;56.40;;;;;;5096814;28;20030;-61
2023/10/06 13:36:50;;;;;;;;;;;17.80;56.60;;;;;;5102857;28;20003;-61
2023/10/06 13:39:23;;;;;;;;;;;17.80;56.80;;;;;;5094699;28;19977;-61
2023/10/06 13:41:50;;;;;;;;;;;17.80;56.50;;;;;;5094197;28;19968;-61
2023/10/06 13:44:17;;;;;;;;;;;17.80;56.40;;;;;;5096479;28;20420;-61
2023/10/06 13:46:44;;;;;;;;;;;17.80;56.60;;;;;;5096132;28;19934;-61
2023/10/06 13:49:11;;;;;;;;;;;17.70;56.80;;;;;;5096420;28;20327;-61
2023/10/06 13:51:39;;;;;;;;;;;17.70;56.70;;;;;;5095969;28;19954;-61
2023/10/06 13:54:06;;;;;;;;;;;17.80;56.50;;;;;;5094533;28;20308;-61
2023/10/06 13:56:34;;;;;;;;;;;17.80;56.70;;;;;;5096470;28;19969;-61
2023/10/06 13:59:03;;;;;;;;;;;17.80;56.70;;;;;;5096137;28;20018;-61
2023/10/06 14:01:33;;;;;;;;;;;17.80;56.60;;;;;;5096220;28;20011;-61
2023/10/06 14:04:02;;;;;;;;;;;17.90;56.30;;;;;;5095350;28;20019;-61
2023/10/06 14:06:30;;;;;;;;;;;18.00;60.90;;;;;;5095778;28;19930;-61
2023/10/06 14:08:57;;;;;;;;;;;18.10;67.90;;;;;;5096003;28;19953;-61
2023/10/06 14:11:25;;;;;;;;;;;18.40;71.40;;;;;;5096127;28;19978;-61
2023/10/06 14:13:56;;;;;;;;;;;18.70;73.20;;;;;;5095053;28;19970;-61
2023/10/06 14:16:23;;;;;;;;;;;19.00;73.70;;;;;;5095839;28;19924;-61
2023/10/06 14:18:53;;;;;;;;;;;19.30;73.60;;;;;;5095906;28;20396;-61
2023/10/06 14:21:20;;;;;;;;;;;19.50;73.70;;;;;;5078044;28;19924;-61
2023/10/06 14:23:49;;;;;;;;;;;19.70;73.20;;;;;;5095307;28;20296;-61
2023/10/06 14:26:18;;;;;;;;;;;19.90;72.90;;;;;;5096185;28;20289;-61
2023/10/06 14:28:45;;;;;;;;;;;20.20;72.80;;;;;;5095836;28;20267;-61
2023/10/06 14:31:34;;;;;;;;;;;20.30;72.60;;;;;;5095769;28;20359;-61
2023/10/06 14:36:46;;;;;;;;;;;20.60;72.20;;;;;;5095928;28;19924;-62
2023/10/06 14:47:18;;;;;;;;;;;21.10;71.50;;;;;;5095329;28;20420;-61